createdAt,value
2023-03-11T00:40:57.422Z,97.10
2023-03-11T00:46:21.618Z,97.20
2023-03-11T00:51:45.119Z,97.40
2023-03-11T00:57:09.831Z,97.20
2023-03-11T01:02:34.943Z,97.60
2023-03-11T01:07:58.124Z,98.60
2023-03-11T01:13:24.876Z,98.20
2023-03-11T01:18:48.042Z,98.10
2023-03-11T01:24:11.202Z,98.10
2023-03-11T01:29:36.126Z,98.40
2023-03-11T01:34:59.868Z,98.00
2023-03-11T01:40:29.894Z,97.90
2023-03-11T01:46:14.808Z,98.40
2023-03-11T01:51:44.714Z,98.60
2023-03-11T01:57:14.918Z,98.70
2023-03-11T02:02:47.319Z,98.20
2023-03-11T02:08:10.997Z,98.50
2023-03-11T02:13:36.354Z,98.70
2023-03-11T02:19:13.295Z,98.40
2023-03-11T02:24:46.586Z,98.70
2023-03-11T02:30:15.271Z,98.50
2023-03-11T02:35:40.642Z,98.50
2023-03-11T02:41:06.453Z,97.90
2023-03-11T02:46:31.696Z,98.50
2023-03-11T02:51:58.330Z,98.70
2023-03-11T02:57:21.631Z,98.50
2023-03-11T03:02:46.930Z,98.50
2023-03-11T03:08:10.376Z,98.90
2023-03-11T03:13:35.224Z,98.60
2023-03-11T03:18:59.864Z,98.20
2023-03-11T03:24:23.204Z,98.60
2023-03-11T03:29:46.370Z,98.60
2023-03-11T03:35:11.917Z,98.20
2023-03-11T03:41:01.198Z,98.50
2023-03-11T03:46:24.780Z,98.60
2023-03-11T03:51:53.687Z,98.70
2023-03-11T03:57:25.552Z,98.30
2023-03-11T04:02:48.960Z,98.30
2023-03-11T04:08:23.150Z,98.40
2023-03-11T04:13:46.642Z,98.20
2023-03-11T04:19:10.298Z,98.50
2023-03-11T04:24:35.387Z,98.60
2023-03-11T04:29:59.282Z,97.70
2023-03-11T04:35:23.210Z,98.20
2023-03-11T04:40:48.053Z,98.50
2023-03-11T04:46:11.597Z,98.50
2023-03-11T04:51:37.147Z,98.50
2023-03-11T04:57:02.785Z,98.60
2023-03-11T05:02:26.092Z,98.30
2023-03-11T05:07:55.005Z,98.60
2023-03-11T05:13:21.839Z,98.40
2023-03-11T05:18:47.454Z,98.10
2023-03-11T05:24:12.477Z,98.30
2023-03-11T05:29:37.093Z,98.00
2023-03-11T05:35:02.416Z,98.30
2023-03-11T05:40:25.848Z,98.00
2023-03-11T05:45:50.706Z,98.10
2023-03-11T05:51:14.452Z,98.20
2023-03-11T05:56:39.598Z,98.00
2023-03-11T06:02:04.988Z,98.00
2023-03-11T06:07:28.152Z,98.30
2023-03-11T06:12:52.674Z,98.30
2023-03-11T06:18:22.015Z,98.30
2023-03-11T06:23:45.352Z,98.30
2023-03-11T06:29:13.023Z,97.90
2023-03-11T06:34:38.022Z,98.60
2023-03-11T06:40:04.608Z,98.50
2023-03-11T06:45:28.550Z,98.50
2023-03-11T06:50:57.130Z,98.30
2023-03-11T06:56:23.162Z,98.70
2023-03-11T07:01:59.776Z,98.20
2023-03-11T07:07:25.138Z,98.10
2023-03-11T07:12:48.417Z,98.20
2023-03-11T07:18:11.915Z,98.00
2023-03-11T07:23:37.749Z,98.20
2023-03-11T07:29:01.592Z,97.60
2023-03-11T07:34:24.633Z,98.10
2023-03-11T07:39:49.309Z,98.00
2023-03-11T07:45:12.673Z,97.90
2023-03-11T07:50:36.016Z,98.40
2023-03-11T07:56:02.091Z,98.20
2023-03-11T08:01:31.658Z,98.30
2023-03-11T08:06:54.800Z,97.40
2023-03-11T08:12:20.106Z,97.10
2023-03-11T08:17:43.260Z,97.90
2023-03-11T08:23:06.689Z,97.50
2023-03-11T08:28:34.714Z,97.90
2023-03-11T08:34:00.901Z,97.50
2023-03-11T08:39:40.557Z,97.70
2023-03-11T08:45:07.245Z,97.20
2023-03-11T08:50:30.589Z,96.90
2023-03-11T08:55:54.159Z,96.60
2023-03-11T09:01:19.403Z,96.90
2023-03-11T09:06:44.246Z,97.10
2023-03-11T09:12:54.360Z,96.10
2023-03-11T09:24:34.254Z,96.80
2023-03-11T09:29:57.614Z,96.30
2023-03-11T09:35:22.385Z,96.80
2023-03-11T09:40:59.798Z,96.20
2023-03-11T09:53:46.907Z,94.50
2023-03-11T10:47:29.904Z,92.90
2023-03-11T11:00:30.826Z,91.60
2023-03-11T11:06:08.014Z,92.50
2023-03-11T11:11:31.046Z,92.60
2023-03-11T11:16:54.230Z,92.30
2023-03-11T11:22:22.371Z,91.70
2023-03-11T11:27:56.177Z,92.50
2023-03-11T11:33:26.964Z,92.20
2023-03-11T11:38:53.915Z,89.80
2023-03-11T11:44:22.839Z,89.50
2023-03-11T11:49:54.450Z,90.30
2023-03-11T11:55:25.782Z,90.80
2023-03-11T12:01:10.328Z,90.70
2023-03-11T12:06:41.502Z,91.80
2023-03-11T12:12:22.693Z,88.90
2023-03-11T12:17:51.184Z,90.50
2023-03-11T12:23:24.814Z,87.60
2023-03-11T12:28:57.607Z,86.60
2023-03-11T12:34:23.425Z,86.40
2023-03-11T12:39:46.470Z,90.40
2023-03-11T12:45:50.693Z,89.60
2023-03-11T12:51:39.495Z,87.60
2023-03-11T12:57:08.151Z,89.40
2023-03-11T13:03:14.351Z,88.20
2023-03-11T13:08:46.295Z,91.10
2023-03-11T13:14:29.103Z,87.20
2023-03-11T13:19:56.448Z,88.90
2023-03-11T13:25:35.173Z,86.50
2023-03-11T13:31:22.525Z,88.20
2023-03-11T13:37:16.940Z,89.70
2023-03-11T13:42:45.332Z,83.30
2023-03-11T13:48:18.666Z,88.40
2023-03-11T13:53:51.270Z,87.20
2023-03-11T13:59:22.148Z,87.80
2023-03-11T14:04:53.012Z,87.70
2023-03-11T14:10:30.961Z,84.40
2023-03-11T14:16:03.384Z,87.90
2023-03-11T14:21:27.171Z,87.20
2023-03-11T14:26:56.259Z,85.80
2023-03-11T14:32:28.477Z,87.20
2023-03-11T14:37:51.888Z,85.50
2023-03-11T14:43:16.723Z,86.00
2023-03-11T14:48:43.367Z,86.40
2023-03-11T14:54:18.005Z,83.60
2023-03-11T14:59:48.921Z,85.10
2023-03-11T15:05:22.798Z,78.60
2023-03-11T15:11:14.245Z,86.80
2023-03-11T15:16:39.021Z,81.10
2023-03-11T15:22:24.154Z,83.00
2023-03-11T15:27:47.645Z,85.70
2023-03-11T15:33:30.699Z,84.00
2023-03-11T15:39:13.392Z,86.80
2023-03-11T15:44:41.221Z,86.30
2023-03-11T15:50:24.905Z,87.00
2023-03-11T15:55:49.599Z,85.30
2023-03-11T16:01:13.014Z,84.10
2023-03-11T16:06:37.486Z,87.30
2023-03-11T16:12:02.204Z,87.10
2023-03-11T16:17:25.229Z,83.30
2023-03-11T16:22:52.734Z,86.70
2023-03-11T16:28:17.435Z,85.80
2023-03-11T16:33:40.553Z,85.00
2023-03-11T16:39:05.300Z,84.70
2023-03-11T16:44:28.383Z,88.40
2023-03-11T16:49:51.925Z,86.60
2023-03-11T16:55:16.781Z,86.80
2023-03-11T17:00:39.746Z,87.60
2023-03-11T17:06:04.138Z,87.50
2023-03-11T17:11:28.864Z,88.20
2023-03-11T17:16:52.260Z,87.40
2023-03-11T17:22:16.158Z,88.30
2023-03-11T17:27:40.926Z,87.60
2023-03-11T17:33:04.424Z,87.70
2023-03-11T17:38:27.863Z,88.50
2023-03-11T17:43:52.763Z,87.90
2023-03-11T17:49:16.182Z,88.30
2023-03-11T17:54:39.362Z,88.10
2023-03-11T18:00:05.642Z,87.80
2023-03-11T18:05:28.933Z,87.70
2023-03-11T18:10:53.192Z,88.10
2023-03-11T18:16:20.700Z,88.00
2023-03-11T18:21:44.164Z,88.00
2023-03-11T18:27:07.440Z,88.50
2023-03-11T18:32:32.319Z,88.40
2023-03-11T18:37:55.712Z,88.40
2023-03-11T18:43:19.133Z,88.80
2023-03-11T18:48:43.838Z,89.60
2023-03-11T18:54:06.879Z,89.00
2023-03-11T18:59:30.172Z,88.90
2023-03-11T19:04:54.926Z,88.80
2023-03-11T19:10:18.473Z,89.40
2023-03-11T19:15:42.094Z,88.40
2023-03-11T19:21:08.608Z,88.20
2023-03-11T19:26:44.214Z,88.50
2023-03-11T19:32:08.813Z,89.60
2023-03-11T19:37:33.990Z,88.60
2023-03-11T19:42:57.245Z,90.10
2023-03-11T19:48:20.480Z,90.10
2023-03-11T19:53:45.685Z,89.80
2023-03-11T19:59:09.366Z,90.30
2023-03-11T20:04:33.231Z,90.20
2023-03-11T20:09:57.826Z,90.10
2023-03-11T20:15:21.390Z,90.20
2023-03-11T20:20:44.882Z,89.70
2023-03-11T20:26:12.838Z,90.00
2023-03-11T20:31:36.700Z,90.10
2023-03-11T20:36:59.828Z,90.00
2023-03-11T20:42:24.655Z,90.10
2023-03-11T20:47:48.022Z,89.30
2023-03-11T20:53:11.157Z,89.20
2023-03-11T20:58:35.784Z,89.30
2023-03-11T21:04:03.316Z,88.70
2023-03-11T21:09:26.897Z,89.30
2023-03-11T21:14:51.759Z,87.60
2023-03-11T21:20:15.071Z,88.20
2023-03-11T21:25:38.572Z,88.70
2023-03-11T21:31:07.217Z,88.70
2023-03-11T21:36:31.100Z,87.70
2023-03-11T21:41:54.389Z,88.40
2023-03-11T21:47:19.662Z,88.00
2023-03-11T21:52:42.742Z,87.70
2023-03-11T21:58:05.928Z,87.10
2023-03-11T22:03:30.593Z,86.70
2023-03-11T22:08:54.053Z,88.10
2023-03-11T22:14:17.439Z,87.10
2023-03-11T22:19:42.115Z,88.00
2023-03-11T22:25:06.098Z,87.40
2023-03-11T22:30:30.640Z,88.20
2023-03-11T22:35:57.507Z,87.90
2023-03-11T22:41:20.499Z,87.30
2023-03-11T22:46:43.619Z,87.60
2023-03-11T22:52:08.420Z,88.50
2023-03-11T22:57:31.658Z,89.20
2023-03-11T23:02:56.442Z,88.40
2023-03-11T23:08:21.482Z,87.90
2023-03-11T23:13:45.096Z,87.50
2023-03-11T23:19:08.826Z,88.60
2023-03-11T23:24:33.232Z,87.80
2023-03-11T23:29:56.177Z,88.80
2023-03-11T23:35:19.743Z,88.30
2023-03-11T23:40:44.136Z,88.30
2023-03-11T23:46:07.997Z,90.00
2023-03-11T23:51:31.208Z,89.70
2023-03-11T23:56:55.895Z,89.80
